createdAt,value
2022-08-19T00:01:58.944Z,96.00
2022-08-19T00:04:30.383Z,95.95
2022-08-19T00:06:57.770Z,96.13
2022-08-19T00:09:25.732Z,95.88
2022-08-19T00:11:53.846Z,95.80
2022-08-19T00:14:21.766Z,96.09
2022-08-19T00:16:49.116Z,95.99
2022-08-19T00:19:17.020Z,95.96
2022-08-19T00:21:44.224Z,96.08
2022-08-19T00:24:13.633Z,96.34
2022-08-19T00:26:41.084Z,96.41
2022-08-19T00:29:09.490Z,95.73
2022-08-19T00:31:36.607Z,95.70
2022-08-19T00:34:03.999Z,96.20
2022-08-19T00:36:30.516Z,96.30
2022-08-19T00:38:57.197Z,96.69
2022-08-19T00:41:25.811Z,96.89
2022-08-19T00:44:05.640Z,96.93
2022-08-19T00:46:34.236Z,96.87
2022-08-19T00:49:03.435Z,96.59
2022-08-19T00:51:33.415Z,96.98
2022-08-19T00:54:02.618Z,96.86
2022-08-19T00:56:29.737Z,96.50
2022-08-19T00:58:59.220Z,96.59
2022-08-19T01:01:26.389Z,96.93
2022-08-19T01:03:56.745Z,96.58
2022-08-19T01:06:25.567Z,97.03
2022-08-19T01:08:52.075Z,96.92
2022-08-19T01:11:18.698Z,97.07
2022-08-19T01:13:49.862Z,97.00
2022-08-19T01:16:18.727Z,97.48
2022-08-19T01:18:45.447Z,97.70
2022-08-19T01:21:25.597Z,97.81
2022-08-19T01:23:52.243Z,97.94
2022-08-19T01:26:22.649Z,97.98
2022-08-19T01:28:53.112Z,97.84
2022-08-19T01:31:26.831Z,97.68
2022-08-19T01:33:56.594Z,97.42
2022-08-19T01:36:33.047Z,97.53
2022-08-19T01:39:00.988Z,97.36
2022-08-19T01:41:27.551Z,97.16
2022-08-19T01:44:13.207Z,97.27
2022-08-19T01:46:42.300Z,97.41
2022-08-19T01:49:09.421Z,97.46
2022-08-19T01:51:39.839Z,97.07
2022-08-19T01:54:07.012Z,97.38
2022-08-19T01:56:33.593Z,97.55
2022-08-19T01:59:13.168Z,97.66
2022-08-19T02:01:39.754Z,97.54
2022-08-19T02:04:06.718Z,97.66
2022-08-19T02:06:34.091Z,97.60
2022-08-19T02:09:01.140Z,97.82
2022-08-19T02:11:34.458Z,97.47
2022-08-19T02:14:03.593Z,97.64
2022-08-19T02:16:31.244Z,97.60
2022-08-19T02:18:58.053Z,97.83
2022-08-19T02:21:24.967Z,97.59
2022-08-19T02:23:51.586Z,97.70
2022-08-19T02:26:19.128Z,98.26
2022-08-19T02:28:45.590Z,98.32
2022-08-19T02:31:14.000Z,98.04
2022-08-19T02:33:40.483Z,98.24
2022-08-19T02:36:08.617Z,98.20
2022-08-19T02:38:36.112Z,98.02
2022-08-19T02:41:08.101Z,98.65
2022-08-19T02:43:38.084Z,98.67
2022-08-19T02:46:22.017Z,98.23
2022-08-19T02:48:54.032Z,98.13
2022-08-19T02:51:24.199Z,98.60
2022-08-19T02:53:50.855Z,98.54
2022-08-19T02:56:18.311Z,98.68
2022-08-19T02:58:45.259Z,98.68
2022-08-19T03:01:20.298Z,98.60
2022-08-19T03:03:47.360Z,98.87
2022-08-19T03:06:16.361Z,98.94
2022-08-19T03:08:45.444Z,99.20
2022-08-19T03:11:21.796Z,98.92
2022-08-19T03:13:49.985Z,99.20
2022-08-19T03:16:17.288Z,99.27
2022-08-19T03:18:43.903Z,98.73
2022-08-19T03:21:15.274Z,98.74
2022-08-19T03:23:41.763Z,99.25
2022-08-19T03:26:15.989Z,99.04
2022-08-19T03:28:51.235Z,99.32
2022-08-19T03:31:41.919Z,99.45
2022-08-19T03:34:20.075Z,99.40
2022-08-19T03:36:48.231Z,100.00
2022-08-19T03:39:15.512Z,99.55
2022-08-19T03:41:45.734Z,99.65
2022-08-19T03:44:20.549Z,99.47
2022-08-19T03:46:50.336Z,99.60
2022-08-19T03:49:18.184Z,99.20
2022-08-19T03:51:45.866Z,99.44
2022-08-19T03:54:15.215Z,99.55
2022-08-19T03:56:44.471Z,100.00
2022-08-19T03:59:14.446Z,100.00
2022-08-19T04:01:41.145Z,100.00
2022-08-19T04:04:07.697Z,100.00
2022-08-19T04:06:38.799Z,100.00
2022-08-19T04:09:09.600Z,100.00
2022-08-19T04:11:45.330Z,100.00
2022-08-19T04:14:15.023Z,100.00
2022-08-19T04:16:42.580Z,100.00
2022-08-19T04:19:09.199Z,100.00
2022-08-19T04:21:35.750Z,100.00
2022-08-19T04:24:03.774Z,100.00
2022-08-19T04:26:33.072Z,100.00
2022-08-19T04:29:04.494Z,100.00
2022-08-19T04:31:36.488Z,100.00
2022-08-19T04:34:06.474Z,100.00
2022-08-19T04:36:38.075Z,100.00
2022-08-19T04:39:16.814Z,100.00
2022-08-19T04:42:03.081Z,100.00
2022-08-19T04:44:35.144Z,99.79
2022-08-19T04:47:11.329Z,100.00
2022-08-19T04:49:38.626Z,100.00
2022-08-19T04:52:05.211Z,100.00
2022-08-19T04:54:38.211Z,100.00
2022-08-19T04:57:08.431Z,100.00
2022-08-19T04:59:36.192Z,100.00
2022-08-19T05:02:03.252Z,100.00
2022-08-19T05:04:32.819Z,100.00
2022-08-19T05:07:01.792Z,100.00
2022-08-19T05:09:52.515Z,100.00
2022-08-19T05:12:16.923Z,100.00
2022-08-19T05:14:44.264Z,100.00
2022-08-19T05:17:27.066Z,100.00
2022-08-19T05:20:12.934Z,100.00
2022-08-19T05:22:39.949Z,100.00
2022-08-19T05:25:20.121Z,100.00
2022-08-19T05:27:47.825Z,100.00
2022-08-19T05:30:14.348Z,100.00
2022-08-19T05:32:41.207Z,100.00
2022-08-19T05:35:08.302Z,100.00
2022-08-19T05:37:34.974Z,100.00
2022-08-19T05:40:02.444Z,100.00
2022-08-19T05:42:29.088Z,100.00
2022-08-19T05:44:56.804Z,100.00
2022-08-19T05:47:24.067Z,100.00
2022-08-19T05:49:53.358Z,100.00
2022-08-19T05:52:26.046Z,100.00
2022-08-19T05:54:55.605Z,100.00
2022-08-19T05:57:23.176Z,100.00
2022-08-19T05:59:53.198Z,100.00
2022-08-19T06:02:24.564Z,100.00
2022-08-19T06:04:51.070Z,100.00
2022-08-19T06:07:17.981Z,100.00
2022-08-19T06:09:49.097Z,100.00
2022-08-19T06:12:29.819Z,100.00
2022-08-19T06:15:00.859Z,100.00
2022-08-19T06:17:28.585Z,100.00
2022-08-19T06:19:55.040Z,100.00
2022-08-19T06:22:21.617Z,100.00
2022-08-19T06:24:48.111Z,100.00
2022-08-19T06:27:14.684Z,100.00
2022-08-19T06:29:41.259Z,100.00
2022-08-19T06:32:07.691Z,100.00
2022-08-19T06:34:36.382Z,100.00
2022-08-19T06:37:04.099Z,100.00
2022-08-19T06:39:35.672Z,100.00
2022-08-19T06:42:07.097Z,100.00
2022-08-19T06:44:42.406Z,100.00
2022-08-19T06:47:23.487Z,100.00
2022-08-19T06:50:02.954Z,100.00
2022-08-19T06:52:36.539Z,100.00
2022-08-19T06:55:06.397Z,100.00
2022-08-19T06:57:34.386Z,100.00
2022-08-19T07:00:01.175Z,100.00
2022-08-19T07:02:27.780Z,100.00
2022-08-19T07:04:54.320Z,100.00
2022-08-19T07:07:22.105Z,100.00
2022-08-19T07:09:57.156Z,100.00
2022-08-19T07:12:30.551Z,100.00
2022-08-19T07:14:58.664Z,100.00
2022-08-19T07:17:25.202Z,100.00
2022-08-19T07:19:54.177Z,100.00
2022-08-19T07:22:23.866Z,100.00
2022-08-19T07:24:51.911Z,100.00
2022-08-19T07:27:24.853Z,100.00
2022-08-19T07:29:55.867Z,100.00
2022-08-19T07:32:23.458Z,100.00
2022-08-19T07:34:50.001Z,100.00
2022-08-19T07:37:17.205Z,100.00
2022-08-19T07:39:43.808Z,100.00
2022-08-19T07:42:13.192Z,100.00
2022-08-19T07:44:41.792Z,100.00
2022-08-19T07:47:08.489Z,100.00
2022-08-19T07:49:55.225Z,100.00
2022-08-19T07:52:21.779Z,100.00
2022-08-19T07:54:48.269Z,100.00
2022-08-19T07:57:14.871Z,100.00
2022-08-19T07:59:41.430Z,100.00
2022-08-19T08:02:09.198Z,100.00
2022-08-19T08:04:54.408Z,100.00
2022-08-19T08:07:39.442Z,100.00
2022-08-19T08:10:21.101Z,100.00
2022-08-19T08:13:01.802Z,100.00
2022-08-19T08:15:42.098Z,100.00
2022-08-19T08:18:10.565Z,100.00
2022-08-19T08:20:37.155Z,100.00
2022-08-19T08:23:22.267Z,100.00
2022-08-19T08:25:49.884Z,100.00
2022-08-19T08:28:20.055Z,100.00
2022-08-19T08:30:49.341Z,100.00
2022-08-19T08:33:30.218Z,100.00
2022-08-19T08:36:11.920Z,100.00
2022-08-19T08:38:40.162Z,100.00
2022-08-19T08:41:24.028Z,100.00
2022-08-19T08:43:53.737Z,100.00
2022-08-19T08:46:39.648Z,100.00
2022-08-19T08:49:21.403Z,100.00
2022-08-19T08:52:00.851Z,100.00
2022-08-19T08:54:35.588Z,100.00
2022-08-19T08:57:08.289Z,100.00
2022-08-19T08:59:40.286Z,100.00
2022-08-19T09:02:06.795Z,100.00
2022-08-19T09:04:35.583Z,100.00
2022-08-19T09:07:35.258Z,100.00
2022-08-19T09:10:44.665Z,100.00
2022-08-19T09:13:37.638Z,100.00
2022-08-19T09:16:27.997Z,100.00
2022-08-19T09:19:04.236Z,100.00
2022-08-19T09:21:34.174Z,100.00
2022-08-19T09:24:03.349Z,100.00
2022-08-19T09:26:48.281Z,100.00
2022-08-19T09:29:17.808Z,100.00
2022-08-19T09:31:44.426Z,100.00
2022-08-19T09:34:21.735Z,100.00
2022-08-19T09:36:53.962Z,100.00
2022-08-19T09:39:21.646Z,100.00
2022-08-19T09:41:49.214Z,100.00
2022-08-19T09:44:16.086Z,100.00
2022-08-19T09:46:42.905Z,100.00
2022-08-19T09:49:09.461Z,100.00
2022-08-19T09:51:36.045Z,100.00
2022-08-19T09:54:05.155Z,100.00
2022-08-19T09:56:32.955Z,100.00
2022-08-19T09:59:02.969Z,100.00
2022-08-19T10:01:31.721Z,100.00
2022-08-19T10:04:00.016Z,100.00
2022-08-19T10:06:45.545Z,100.00
2022-08-19T10:09:13.272Z,100.00
2022-08-19T10:11:54.834Z,100.00
2022-08-19T10:14:24.472Z,100.00
2022-08-19T10:16:52.356Z,100.00
2022-08-19T10:19:25.911Z,100.00
2022-08-19T10:21:53.792Z,100.00
2022-08-19T10:24:21.590Z,100.00
2022-08-19T10:26:55.941Z,100.00
2022-08-19T10:29:31.872Z,100.00
2022-08-19T10:32:02.971Z,100.00
2022-08-19T10:34:31.511Z,100.00
2022-08-19T10:37:01.341Z,100.00
2022-08-19T10:39:31.002Z,100.00
2022-08-19T10:41:58.808Z,100.00
2022-08-19T10:44:32.047Z,100.00
2022-08-19T10:46:59.975Z,100.00
2022-08-19T10:49:26.601Z,100.00
2022-08-19T10:52:12.843Z,100.00
2022-08-19T10:55:05.277Z,100.00
2022-08-19T10:58:01.299Z,100.00
2022-08-19T11:00:22.373Z,100.00
2022-08-19T11:02:48.948Z,100.00
2022-08-19T11:05:16.295Z,100.00
2022-08-19T11:07:45.648Z,100.00
2022-08-19T11:10:20.928Z,100.00
2022-08-19T11:12:48.233Z,100.00
2022-08-19T11:15:15.259Z,100.00
2022-08-19T11:17:42.486Z,100.00
2022-08-19T11:20:09.970Z,100.00
2022-08-19T11:22:40.923Z,100.00
2022-08-19T11:25:10.680Z,100.00
2022-08-19T11:27:45.419Z,100.00
2022-08-19T11:30:13.710Z,100.00
2022-08-19T11:32:47.134Z,100.00
2022-08-19T11:35:17.103Z,100.00
2022-08-19T11:37:43.641Z,100.00
2022-08-19T11:40:10.906Z,100.00
2022-08-19T11:42:56.582Z,100.00
2022-08-19T11:45:25.515Z,100.00
2022-08-19T11:47:52.206Z,100.00
2022-08-19T11:50:19.004Z,100.00
2022-08-19T11:52:46.062Z,100.00
2022-08-19T11:55:14.414Z,100.00
2022-08-19T11:57:42.162Z,100.00
2022-08-19T12:00:09.831Z,100.00
2022-08-19T12:02:36.353Z,100.00
2022-08-19T12:05:03.975Z,100.00
2022-08-19T12:07:38.352Z,100.00
2022-08-19T12:10:05.211Z,100.00
2022-08-19T12:12:31.716Z,100.00
2022-08-19T12:14:59.305Z,100.00
2022-08-19T12:17:29.069Z,100.00
2022-08-19T12:19:55.740Z,100.00
2022-08-19T12:22:22.397Z,100.00
2022-08-19T12:24:51.138Z,100.00
2022-08-19T12:27:20.304Z,100.00
2022-08-19T12:30:02.541Z,100.00
2022-08-19T12:32:29.559Z,100.00
2022-08-19T12:34:56.146Z,100.00
2022-08-19T12:37:22.623Z,100.00
2022-08-19T12:39:49.179Z,100.00
2022-08-19T12:42:16.280Z,100.00
2022-08-19T12:44:43.968Z,100.00
2022-08-19T12:47:12.807Z,100.00
2022-08-19T12:49:54.647Z,100.00
2022-08-19T12:52:26.766Z,100.00
2022-08-19T12:54:55.303Z,100.00
2022-08-19T12:57:32.504Z,100.00
2022-08-19T13:00:22.009Z,100.00
2022-08-19T13:02:51.347Z,100.00
2022-08-19T13:05:21.830Z,100.00
2022-08-19T13:07:48.318Z,100.00
2022-08-19T13:10:17.644Z,100.00
2022-08-19T13:12:46.200Z,100.00
2022-08-19T13:15:13.299Z,100.00
2022-08-19T13:17:42.304Z,100.00
2022-08-19T13:20:10.587Z,100.00
2022-08-19T13:22:37.938Z,100.00
2022-08-19T13:25:07.109Z,100.00
2022-08-19T13:27:33.795Z,100.00
2022-08-19T13:30:19.559Z,100.00
2022-08-19T13:33:04.554Z,100.00
2022-08-19T13:35:31.102Z,100.00
2022-08-19T13:37:57.527Z,100.00
2022-08-19T13:40:27.156Z,100.00
2022-08-19T13:42:55.553Z,100.00
2022-08-19T13:45:25.285Z,100.00
2022-08-19T13:47:59.167Z,100.00
2022-08-19T13:50:29.766Z,100.00
2022-08-19T13:52:56.807Z,100.00
2022-08-19T13:55:25.042Z,100.00
2022-08-19T13:57:57.900Z,100.00
2022-08-19T14:00:30.274Z,100.00
2022-08-19T14:02:57.673Z,100.00
2022-08-19T14:05:26.599Z,100.00
2022-08-19T14:07:53.418Z,100.00
2022-08-19T14:10:21.462Z,100.00
2022-08-19T14:12:48.646Z,100.00
2022-08-19T14:15:16.390Z,100.00
2022-08-19T14:17:45.272Z,100.00
2022-08-19T14:20:18.401Z,100.00
2022-08-19T14:22:46.711Z,100.00
2022-08-19T14:25:18.303Z,100.00
2022-08-19T14:27:45.358Z,100.00
2022-08-19T14:30:16.340Z,100.00
2022-08-19T14:32:44.277Z,100.00
2022-08-19T14:35:13.667Z,100.00
2022-08-19T14:37:45.602Z,100.00
2022-08-19T14:40:15.207Z,100.00
2022-08-19T14:42:42.750Z,100.00
2022-08-19T14:45:11.047Z,100.00
2022-08-19T14:47:39.673Z,100.00
2022-08-19T14:50:18.259Z,100.00
2022-08-19T14:52:46.504Z,100.00
2022-08-19T14:55:12.984Z,100.00
2022-08-19T14:57:41.917Z,100.00
2022-08-19T15:00:13.916Z,100.00
2022-08-19T15:02:41.327Z,100.00
2022-08-19T15:05:08.365Z,100.00
2022-08-19T15:07:34.851Z,100.00
2022-08-19T15:10:01.413Z,100.00
2022-08-19T15:12:27.931Z,100.00
2022-08-19T15:14:56.834Z,100.00
2022-08-19T15:17:43.390Z,100.00
2022-08-19T15:20:13.561Z,100.00
2022-08-19T15:22:40.857Z,100.00
2022-08-19T15:25:09.848Z,100.00
2022-08-19T15:27:39.664Z,100.00
2022-08-19T15:30:09.223Z,100.00
2022-08-19T15:32:37.246Z,100.00
2022-08-19T15:35:06.201Z,100.00
2022-08-19T15:37:32.871Z,100.00
2022-08-19T15:40:06.039Z,100.00
2022-08-19T15:42:32.900Z,100.00
2022-08-19T15:45:01.415Z,100.00
2022-08-19T15:47:35.413Z,100.00
2022-08-19T15:50:10.674Z,100.00
2022-08-19T15:52:49.224Z,100.00
2022-08-19T15:55:32.772Z,100.00
2022-08-19T15:58:31.313Z,100.00
2022-08-19T16:01:20.420Z,100.00
2022-08-19T16:04:14.053Z,100.00
2022-08-19T16:06:48.388Z,100.00
2022-08-19T16:09:15.973Z,100.00
2022-08-19T16:11:45.973Z,100.00
2022-08-19T16:14:18.504Z,100.00
2022-08-19T16:16:47.120Z,100.00
2022-08-19T16:19:16.611Z,100.00
2022-08-19T16:21:45.232Z,100.00
2022-08-19T16:24:13.755Z,100.00
2022-08-19T16:26:42.287Z,100.00
2022-08-19T16:29:12.934Z,100.00
2022-08-19T16:31:42.205Z,100.00
2022-08-19T16:34:08.976Z,100.00
2022-08-19T16:36:35.760Z,100.00
2022-08-19T16:39:03.563Z,100.00
2022-08-19T16:41:30.726Z,100.00
2022-08-19T16:43:57.326Z,100.00
2022-08-19T16:46:26.888Z,100.00
2022-08-19T16:48:54.504Z,100.00
2022-08-19T16:51:22.808Z,100.00
2022-08-19T16:53:52.965Z,100.00
2022-08-19T16:56:21.137Z,100.00
2022-08-19T16:58:48.326Z,100.00
2022-08-19T17:01:14.971Z,100.00
2022-08-19T17:03:41.576Z,100.00
2022-08-19T17:06:17.867Z,100.00
2022-08-19T17:08:51.793Z,100.00
2022-08-19T17:11:19.807Z,100.00
2022-08-19T17:13:47.730Z,100.00
2022-08-19T17:16:19.148Z,100.00
2022-08-19T17:18:45.672Z,100.00
2022-08-19T17:21:13.160Z,100.00
2022-08-19T17:23:42.811Z,100.00
2022-08-19T17:26:18.137Z,100.00
2022-08-19T17:28:48.580Z,100.00
2022-08-19T17:31:15.700Z,100.00
2022-08-19T17:33:42.226Z,100.00
2022-08-19T17:36:09.183Z,100.00
2022-08-19T17:38:37.011Z,100.00
2022-08-19T17:41:06.358Z,100.00
2022-08-19T17:43:40.052Z,100.00
2022-08-19T17:46:11.018Z,100.00
2022-08-19T17:48:40.670Z,100.00
2022-08-19T17:51:41.986Z,100.00
2022-08-19T17:54:11.902Z,100.00
2022-08-19T17:56:38.521Z,100.00
2022-08-19T17:59:07.859Z,100.00
2022-08-19T18:01:52.189Z,100.00
2022-08-19T18:04:20.015Z,100.00
2022-08-19T18:06:53.606Z,100.00
2022-08-19T18:09:42.680Z,100.00
2022-08-19T18:12:13.357Z,100.00
2022-08-19T18:14:41.133Z,100.00
2022-08-19T18:17:14.282Z,100.00
2022-08-19T18:19:43.774Z,100.00
2022-08-19T18:22:25.146Z,100.00
2022-08-19T18:24:51.689Z,100.00
2022-08-19T18:27:18.349Z,100.00
2022-08-19T18:29:45.812Z,100.00
2022-08-19T18:32:12.945Z,100.00
2022-08-19T18:34:41.192Z,100.00
2022-08-19T18:37:07.585Z,100.00
2022-08-19T18:39:52.755Z,100.00
2022-08-19T18:42:37.887Z,100.00
2022-08-19T18:45:24.744Z,100.00
2022-08-19T18:48:24.185Z,100.00
2022-08-19T18:50:55.404Z,100.00
2022-08-19T18:53:21.859Z,100.00
2022-08-19T18:55:51.939Z,100.00
2022-08-19T18:58:18.468Z,100.00
2022-08-19T19:00:44.958Z,100.00
2022-08-19T19:03:11.635Z,100.00
2022-08-19T19:05:39.842Z,100.00
2022-08-19T19:08:06.765Z,100.00
2022-08-19T19:10:33.307Z,100.00
2022-08-19T19:13:01.282Z,100.00
2022-08-19T19:15:29.362Z,100.00
2022-08-19T19:17:56.037Z,100.00
2022-08-19T19:20:36.271Z,100.00
2022-08-19T19:23:03.784Z,100.00
2022-08-19T19:25:50.387Z,100.00
2022-08-19T19:28:17.260Z,100.00
2022-08-19T19:30:43.816Z,100.00
2022-08-19T19:33:10.259Z,100.00
2022-08-19T19:35:36.723Z,100.00
2022-08-19T19:38:03.205Z,100.00
2022-08-19T19:40:29.674Z,100.00
2022-08-19T19:42:56.159Z,100.00
2022-08-19T19:45:23.329Z,100.00
2022-08-19T19:47:50.132Z,100.00
2022-08-19T19:50:18.034Z,100.00
2022-08-19T19:52:46.043Z,100.00
2022-08-19T19:55:18.316Z,100.00
2022-08-19T19:57:46.459Z,100.00
2022-08-19T20:00:16.202Z,100.00
2022-08-19T20:02:46.658Z,100.00
2022-08-19T20:05:16.307Z,100.00
2022-08-19T20:08:01.568Z,100.00
2022-08-19T20:10:28.543Z,100.00
2022-08-19T20:12:56.716Z,100.00
2022-08-19T20:15:24.093Z,100.00
2022-08-19T20:17:51.051Z,100.00
2022-08-19T20:20:19.332Z,100.00
2022-08-19T20:22:47.346Z,100.00
2022-08-19T20:25:16.364Z,100.00
2022-08-19T20:27:43.408Z,100.00
2022-08-19T20:30:19.584Z,100.00
2022-08-19T20:32:47.139Z,100.00
2022-08-19T20:35:16.147Z,100.00
2022-08-19T20:37:42.676Z,100.00
2022-08-19T20:40:11.058Z,100.00
2022-08-19T20:42:40.598Z,100.00
2022-08-19T20:45:28.077Z,100.00
2022-08-19T20:48:02.406Z,100.00
2022-08-19T20:50:30.158Z,100.00
2022-08-19T20:52:57.287Z,100.00
2022-08-19T20:55:23.920Z,100.00
2022-08-19T20:57:51.563Z,100.00
2022-08-19T21:00:18.556Z,100.00
2022-08-19T21:02:45.007Z,100.00
2022-08-19T21:05:11.495Z,100.00
2022-08-19T21:07:39.021Z,100.00
2022-08-19T21:10:06.931Z,100.00
2022-08-19T21:12:33.457Z,100.00
2022-08-19T21:14:59.915Z,100.00
2022-08-19T21:17:26.424Z,100.00
2022-08-19T21:19:52.903Z,100.00
2022-08-19T21:22:19.385Z,100.00
2022-08-19T21:24:45.832Z,100.00
2022-08-19T21:27:12.344Z,100.00
2022-08-19T21:29:40.458Z,100.00
2022-08-19T21:32:07.667Z,100.00
2022-08-19T21:34:34.315Z,100.00
2022-08-19T21:37:00.793Z,100.00
2022-08-19T21:39:27.252Z,100.00
2022-08-19T21:41:54.312Z,99.75
2022-08-19T21:44:20.771Z,99.50
2022-08-19T21:46:50.409Z,99.27
2022-08-19T21:49:17.348Z,99.00
2022-08-19T21:51:44.149Z,98.97
2022-08-19T21:54:14.229Z,98.66
2022-08-19T21:56:41.592Z,98.49
2022-08-19T21:59:08.691Z,98.42
2022-08-19T22:01:35.482Z,97.86
2022-08-19T22:04:02.004Z,97.13
2022-08-19T22:06:28.551Z,96.73
2022-08-19T22:08:55.560Z,96.46
2022-08-19T22:11:24.208Z,96.23
2022-08-19T22:13:53.760Z,96.00
2022-08-19T22:16:20.893Z,95.92
2022-08-19T22:18:48.119Z,95.92
2022-08-19T22:21:15.203Z,95.91
2022-08-19T22:23:47.628Z,95.76
2022-08-19T22:26:16.315Z,95.67
2022-08-19T22:28:43.575Z,95.82
2022-08-19T22:31:11.032Z,95.88
2022-08-19T22:33:38.545Z,96.11
2022-08-19T22:36:07.637Z,96.17
2022-08-19T22:38:35.078Z,96.30
2022-08-19T22:41:02.471Z,96.41
2022-08-19T22:43:31.718Z,96.44
2022-08-19T22:45:59.260Z,96.55
2022-08-19T22:48:30.628Z,96.68
2022-08-19T22:51:16.107Z,96.68
2022-08-19T22:53:45.448Z,96.79
2022-08-19T22:56:15.538Z,96.89
2022-08-19T22:58:42.442Z,96.77
2022-08-19T23:01:11.590Z,96.70
2022-08-19T23:03:42.811Z,96.70
2022-08-19T23:06:10.011Z,96.80
2022-08-19T23:08:39.744Z,96.72
2022-08-19T23:11:06.880Z,96.64
2022-08-19T23:13:33.719Z,96.58
2022-08-19T23:16:00.254Z,96.53
2022-08-19T23:18:27.428Z,96.47
2022-08-19T23:20:54.504Z,96.42
2022-08-19T23:23:24.687Z,96.42
2022-08-19T23:25:53.256Z,96.35
2022-08-19T23:28:39.284Z,96.27
2022-08-19T23:31:07.200Z,96.25
2022-08-19T23:33:51.011Z,96.19
2022-08-19T23:36:19.850Z,96.09
2022-08-19T23:38:48.048Z,96.09
2022-08-19T23:41:16.636Z,96.02
2022-08-19T23:43:44.477Z,95.90
2022-08-19T23:46:13.492Z,95.88
2022-08-19T23:48:40.871Z,95.93
2022-08-19T23:51:10.781Z,95.93
2022-08-19T23:53:39.504Z,95.95
2022-08-19T23:56:08.307Z,95.88
2022-08-19T23:58:36.296Z,95.82
